sensor_id;sensor_type;location;lat;lon;timestamp;P1;durP1;ratioP1;P2;durP2;ratioP2
25758;SDS011;13604;52.496;13.456;2023-04-01T00:00:23;7.18;;;3.75;;
25758;SDS011;13604;52.496;13.456;2023-04-01T00:02:48;8.05;;;3.35;;
25758;SDS011;13604;52.496;13.456;2023-04-01T00:05:14;7.22;;;4.18;;
25758;SDS011;13604;52.496;13.456;2023-04-01T00:07:41;6.45;;;3.75;;
25758;SDS011;13604;52.496;13.456;2023-04-01T00:10:07;6.97;;;3.65;;
25758;SDS011;13604;52.496;13.456;2023-04-01T00:12:34;7.15;;;3.30;;
25758;SDS011;13604;52.496;13.456;2023-04-01T00:15:00;6.22;;;3.60;;
25758;SDS011;13604;52.496;13.456;2023-04-01T00:17:26;5.15;;;3.60;;
25758;SDS011;13604;52.496;13.456;2023-04-01T00:19:53;6.25;;;3.65;;
25758;SDS011;13604;52.496;13.456;2023-04-01T00:22:20;8.30;;;3.53;;
25758;SDS011;13604;52.496;13.456;2023-04-01T00:24:45;5.75;;;3.55;;
25758;SDS011;13604;52.496;13.456;2023-04-01T00:27:10;7.10;;;4.18;;
25758;SDS011;13604;52.496;13.456;2023-04-01T00:29:36;5.03;;;3.22;;
25758;SDS011;13604;52.496;13.456;2023-04-01T00:32:01;10.95;;;4.13;;
25758;SDS011;13604;52.496;13.456;2023-04-01T00:34:26;6.95;;;3.70;;
25758;SDS011;13604;52.496;13.456;2023-04-01T00:36:52;5.63;;;3.63;;
25758;SDS011;13604;52.496;13.456;2023-04-01T00:39:18;6.38;;;3.50;;
25758;SDS011;13604;52.496;13.456;2023-04-01T00:41:44;8.50;;;3.90;;
25758;SDS011;13604;52.496;13.456;2023-04-01T00:44:20;6.28;;;3.97;;
25758;SDS011;13604;52.496;13.456;2023-04-01T00:46:48;8.55;;;3.58;;
25758;SDS011;13604;52.496;13.456;2023-04-01T00:49:14;5.13;;;3.45;;
25758;SDS011;13604;52.496;13.456;2023-04-01T00:51:42;9.38;;;3.67;;
25758;SDS011;13604;52.496;13.456;2023-04-01T00:54:11;7.82;;;3.72;;
25758;SDS011;13604;52.496;13.456;2023-04-01T00:56:39;5.95;;;3.17;;
25758;SDS011;13604;52.496;13.456;2023-04-01T00:59:11;5.95;;;3.65;;
25758;SDS011;13604;52.496;13.456;2023-04-01T01:01:39;4.78;;;3.42;;
25758;SDS011;13604;52.496;13.456;2023-04-01T01:04:05;7.70;;;3.70;;
25758;SDS011;13604;52.496;13.456;2023-04-01T01:06:46;7.20;;;3.65;;
25758;SDS011;13604;52.496;13.456;2023-04-01T01:12:01;9.23;;;3.58;;
25758;SDS011;13604;52.496;13.456;2023-04-01T01:14:47;5.50;;;3.17;;
25758;SDS011;13604;52.496;13.456;2023-04-01T01:17:44;6.47;;;3.55;;
25758;SDS011;13604;52.496;13.456;2023-04-01T01:23:11;6.78;;;3.80;;
25758;SDS011;13604;52.496;13.456;2023-04-01T01:26:04;5.78;;;3.38;;
25758;SDS011;13604;52.496;13.456;2023-04-01T01:28:51;8.43;;;3.40;;
25758;SDS011;13604;52.496;13.456;2023-04-01T01:31:44;5.43;;;3.13;;
25758;SDS011;13604;52.496;13.456;2023-04-01T01:34:36;5.75;;;3.50;;
25758;SDS011;13604;52.496;13.456;2023-04-01T01:37:14;7.88;;;4.07;;
25758;SDS011;13604;52.496;13.456;2023-04-01T01:39:44;13.45;;;4.30;;
25758;SDS011;13604;52.496;13.456;2023-04-01T01:42:15;5.88;;;3.47;;
25758;SDS011;13604;52.496;13.456;2023-04-01T01:44:44;9.18;;;3.67;;
25758;SDS011;13604;52.496;13.456;2023-04-01T01:47:12;7.15;;;3.83;;
25758;SDS011;13604;52.496;13.456;2023-04-01T01:49:38;7.10;;;3.30;;
25758;SDS011;13604;52.496;13.456;2023-04-01T01:52:07;9.02;;;3.60;;
25758;SDS011;13604;52.496;13.456;2023-04-01T01:54:32;6.40;;;3.22;;
25758;SDS011;13604;52.496;13.456;2023-04-01T01:57:07;5.20;;;3.22;;
25758;SDS011;13604;52.496;13.456;2023-04-01T01:59:35;6.10;;;3.28;;
25758;SDS011;13604;52.496;13.456;2023-04-01T02:02:03;7.00;;;3.70;;
25758;SDS011;13604;52.496;13.456;2023-04-01T02:04:34;8.40;;;3.70;;
25758;SDS011;13604;52.496;13.456;2023-04-01T02:07:04;5.43;;;3.30;;
25758;SDS011;13604;52.496;13.456;2023-04-01T02:09:33;6.88;;;3.50;;
25758;SDS011;13604;52.496;13.456;2023-04-01T02:12:00;4.97;;;3.47;;
25758;SDS011;13604;52.496;13.456;2023-04-01T02:14:30;6.50;;;3.40;;
25758;SDS011;13604;52.496;13.456;2023-04-01T02:17:15;9.95;;;3.50;;
25758;SDS011;13604;52.496;13.456;2023-04-01T02:20:04;6.63;;;3.00;;
25758;SDS011;13604;52.496;13.456;2023-04-01T02:22:33;4.13;;;2.97;;
25758;SDS011;13604;52.496;13.456;2023-04-01T02:25:03;5.05;;;2.88;;
25758;SDS011;13604;52.496;13.456;2023-04-01T02:27:31;6.47;;;2.90;;
25758;SDS011;13604;52.496;13.456;2023-04-01T02:29:57;8.35;;;3.55;;
25758;SDS011;13604;52.496;13.456;2023-04-01T02:32:23;7.63;;;3.10;;
25758;SDS011;13604;52.496;13.456;2023-04-01T02:34:49;7.05;;;2.70;;
25758;SDS011;13604;52.496;13.456;2023-04-01T02:37:15;6.07;;;3.05;;
25758;SDS011;13604;52.496;13.456;2023-04-01T02:39:41;7.95;;;2.75;;
25758;SDS011;13604;52.496;13.456;2023-04-01T02:42:07;7.15;;;3.50;;
25758;SDS011;13604;52.496;13.456;2023-04-01T02:44:33;5.85;;;2.50;;
25758;SDS011;13604;52.496;13.456;2023-04-01T02:46:58;5.68;;;2.70;;
25758;SDS011;13604;52.496;13.456;2023-04-01T02:49:23;8.27;;;3.30;;
25758;SDS011;13604;52.496;13.456;2023-04-01T02:51:48;4.78;;;2.85;;
25758;SDS011;13604;52.496;13.456;2023-04-01T02:54:14;6.60;;;3.20;;
25758;SDS011;13604;52.496;13.456;2023-04-01T02:56:39;7.30;;;3.35;;
25758;SDS011;13604;52.496;13.456;2023-04-01T02:59:04;9.77;;;3.47;;
25758;SDS011;13604;52.496;13.456;2023-04-01T03:01:30;5.57;;;3.35;;
25758;SDS011;13604;52.496;13.456;2023-04-01T03:03:55;6.85;;;3.33;;
25758;SDS011;13604;52.496;13.456;2023-04-01T03:06:20;5.45;;;3.38;;
25758;SDS011;13604;52.496;13.456;2023-04-01T03:08:46;7.10;;;3.38;;
25758;SDS011;13604;52.496;13.456;2023-04-01T03:11:11;6.40;;;3.20;;
25758;SDS011;13604;52.496;13.456;2023-04-01T03:13:38;6.80;;;3.65;;
25758;SDS011;13604;52.496;13.456;2023-04-01T03:16:03;10.25;;;4.45;;
25758;SDS011;13604;52.496;13.456;2023-04-01T03:18:29;10.93;;;3.85;;
25758;SDS011;13604;52.496;13.456;2023-04-01T03:20:54;6.65;;;3.67;;
25758;SDS011;13604;52.496;13.456;2023-04-01T03:23:20;7.82;;;3.72;;
25758;SDS011;13604;52.496;13.456;2023-04-01T03:25:46;5.75;;;3.38;;
25758;SDS011;13604;52.496;13.456;2023-04-01T03:28:11;6.30;;;3.90;;
25758;SDS011;13604;52.496;13.456;2023-04-01T03:30:38;7.25;;;3.70;;
25758;SDS011;13604;52.496;13.456;2023-04-01T03:33:03;9.93;;;3.70;;
25758;SDS011;13604;52.496;13.456;2023-04-01T03:35:29;10.85;;;3.75;;
25758;SDS011;13604;52.496;13.456;2023-04-01T03:37:54;6.05;;;3.65;;
25758;SDS011;13604;52.496;13.456;2023-04-01T03:40:20;7.57;;;3.53;;
25758;SDS011;13604;52.496;13.456;2023-04-01T03:42:46;8.07;;;3.67;;
25758;SDS011;13604;52.496;13.456;2023-04-01T03:45:12;8.07;;;3.47;;
25758;SDS011;13604;52.496;13.456;2023-04-01T03:47:38;7.85;;;3.53;;
25758;SDS011;13604;52.496;13.456;2023-04-01T03:50:03;6.53;;;3.80;;
25758;SDS011;13604;52.496;13.456;2023-04-01T03:52:29;4.97;;;3.53;;
25758;SDS011;13604;52.496;13.456;2023-04-01T03:54:55;6.55;;;3.78;;
25758;SDS011;13604;52.496;13.456;2023-04-01T03:57:20;14.07;;;4.07;;
25758;SDS011;13604;52.496;13.456;2023-04-01T03:59:45;5.38;;;3.85;;
25758;SDS011;13604;52.496;13.456;2023-04-01T04:02:11;9.63;;;4.20;;
25758;SDS011;13604;52.496;13.456;2023-04-01T04:04:36;7.70;;;3.80;;
25758;SDS011;13604;52.496;13.456;2023-04-01T04:07:01;8.20;;;4.10;;
25758;SDS011;13604;52.496;13.456;2023-04-01T04:09:27;7.93;;;3.55;;
25758;SDS011;13604;52.496;13.456;2023-04-01T04:11:52;7.68;;;3.83;;
25758;SDS011;13604;52.496;13.456;2023-04-01T04:14:17;10.02;;;4.13;;
25758;SDS011;13604;52.496;13.456;2023-04-01T04:16:43;8.30;;;3.85;;
25758;SDS011;13604;52.496;13.456;2023-04-01T04:19:09;9.57;;;4.13;;
25758;SDS011;13604;52.496;13.456;2023-04-01T04:21:34;7.90;;;4.05;;
25758;SDS011;13604;52.496;13.456;2023-04-01T04:24:00;5.55;;;3.47;;
25758;SDS011;13604;52.496;13.456;2023-04-01T04:26:26;5.60;;;3.72;;
25758;SDS011;13604;52.496;13.456;2023-04-01T04:28:51;10.48;;;4.75;;
25758;SDS011;13604;52.496;13.456;2023-04-01T04:31:20;9.98;;;4.40;;
25758;SDS011;13604;52.496;13.456;2023-04-01T04:33:47;8.60;;;4.18;;
25758;SDS011;13604;52.496;13.456;2023-04-01T04:36:13;6.15;;;3.60;;
25758;SDS011;13604;52.496;13.456;2023-04-01T04:38:38;8.85;;;4.13;;
25758;SDS011;13604;52.496;13.456;2023-04-01T04:41:08;5.13;;;3.78;;
25758;SDS011;13604;52.496;13.456;2023-04-01T04:43:47;8.70;;;3.85;;
25758;SDS011;13604;52.496;13.456;2023-04-01T04:46:15;8.85;;;3.75;;
25758;SDS011;13604;52.496;13.456;2023-04-01T04:48:40;10.23;;;3.70;;
25758;SDS011;13604;52.496;13.456;2023-04-01T04:51:06;8.95;;;4.75;;
25758;SDS011;13604;52.496;13.456;2023-04-01T04:53:31;5.00;;;3.60;;
25758;SDS011;13604;52.496;13.456;2023-04-01T04:55:57;7.88;;;4.53;;
25758;SDS011;13604;52.496;13.456;2023-04-01T04:58:22;10.68;;;4.65;;
25758;SDS011;13604;52.496;13.456;2023-04-01T05:00:47;9.15;;;4.53;;
25758;SDS011;13604;52.496;13.456;2023-04-01T05:03:13;9.27;;;4.28;;
25758;SDS011;13604;52.496;13.456;2023-04-01T05:05:39;12.90;;;5.25;;
25758;SDS011;13604;52.496;13.456;2023-04-01T05:08:04;9.68;;;4.43;;
25758;SDS011;13604;52.496;13.456;2023-04-01T05:10:30;8.55;;;4.45;;
25758;SDS011;13604;52.496;13.456;2023-04-01T05:12:56;7.95;;;4.35;;
25758;SDS011;13604;52.496;13.456;2023-04-01T05:15:21;7.90;;;5.05;;
25758;SDS011;13604;52.496;13.456;2023-04-01T05:17:47;8.52;;;4.47;;
25758;SDS011;13604;52.496;13.456;2023-04-01T05:20:12;9.38;;;4.68;;
25758;SDS011;13604;52.496;13.456;2023-04-01T05:22:38;9.23;;;4.80;;
25758;SDS011;13604;52.496;13.456;2023-04-01T05:25:04;8.75;;;4.90;;
25758;SDS011;13604;52.496;13.456;2023-04-01T05:27:29;15.60;;;5.30;;
25758;SDS011;13604;52.496;13.456;2023-04-01T05:29:54;9.00;;;5.55;;
25758;SDS011;13604;52.496;13.456;2023-04-01T05:32:20;11.57;;;4.70;;
25758;SDS011;13604;52.496;13.456;2023-04-01T05:34:46;14.05;;;4.88;;
25758;SDS011;13604;52.496;13.456;2023-04-01T05:37:11;11.65;;;5.05;;
25758;SDS011;13604;52.496;13.456;2023-04-01T05:39:37;8.18;;;4.75;;
25758;SDS011;13604;52.496;13.456;2023-04-01T05:42:05;9.85;;;4.47;;
25758;SDS011;13604;52.496;13.456;2023-04-01T05:44:31;13.23;;;5.00;;
25758;SDS011;13604;52.496;13.456;2023-04-01T05:46:56;12.30;;;4.97;;
25758;SDS011;13604;52.496;13.456;2023-04-01T05:49:21;13.30;;;4.50;;
25758;SDS011;13604;52.496;13.456;2023-04-01T05:51:47;11.13;;;5.20;;
25758;SDS011;13604;52.496;13.456;2023-04-01T05:54:12;11.32;;;4.65;;
25758;SDS011;13604;52.496;13.456;2023-04-01T05:56:37;7.50;;;4.30;;
25758;SDS011;13604;52.496;13.456;2023-04-01T05:59:03;13.50;;;5.25;;
25758;SDS011;13604;52.496;13.456;2023-04-01T06:01:28;11.32;;;4.85;;
25758;SDS011;13604;52.496;13.456;2023-04-01T06:03:53;14.73;;;4.78;;
25758;SDS011;13604;52.496;13.456;2023-04-01T06:06:26;10.05;;;4.65;;
25758;SDS011;13604;52.496;13.456;2023-04-01T06:08:53;10.30;;;4.18;;
25758;SDS011;13604;52.496;13.456;2023-04-01T06:20:19;10.40;;;4.55;;
25758;SDS011;13604;52.496;13.456;2023-04-01T06:22:58;9.32;;;5.28;;
25758;SDS011;13604;52.496;13.456;2023-04-01T06:25:46;9.35;;;5.25;;
25758;SDS011;13604;52.496;13.456;2023-04-01T06:33:49;12.70;;;5.57;;
25758;SDS011;13604;52.496;13.456;2023-04-01T06:36:42;11.02;;;5.47;;
25758;SDS011;13604;52.496;13.456;2023-04-01T06:39:42;12.63;;;4.78;;
25758;SDS011;13604;52.496;13.456;2023-04-01T06:42:43;12.85;;;5.22;;
25758;SDS011;13604;52.496;13.456;2023-04-01T06:45:34;9.52;;;4.65;;
25758;SDS011;13604;52.496;13.456;2023-04-01T06:51:08;9.25;;;4.75;;
25758;SDS011;13604;52.496;13.456;2023-04-01T06:53:49;9.57;;;4.22;;
25758;SDS011;13604;52.496;13.456;2023-04-01T06:56:21;9.13;;;4.05;;
25758;SDS011;13604;52.496;13.456;2023-04-01T06:59:02;9.52;;;4.63;;
25758;SDS011;13604;52.496;13.456;2023-04-01T07:01:38;8.70;;;4.47;;
25758;SDS011;13604;52.496;13.456;2023-04-01T07:04:11;12.65;;;4.80;;
25758;SDS011;13604;52.496;13.456;2023-04-01T07:06:51;10.32;;;5.47;;
25758;SDS011;13604;52.496;13.456;2023-04-01T07:09:31;8.93;;;6.05;;
25758;SDS011;13604;52.496;13.456;2023-04-01T07:12:00;8.60;;;5.13;;
25758;SDS011;13604;52.496;13.456;2023-04-01T07:14:37;10.25;;;5.60;;
25758;SDS011;13604;52.496;13.456;2023-04-01T07:17:23;12.77;;;7.03;;
25758;SDS011;13604;52.496;13.456;2023-04-01T07:22:42;8.85;;;5.40;;
25758;SDS011;13604;52.496;13.456;2023-04-01T07:25:14;11.50;;;5.22;;
25758;SDS011;13604;52.496;13.456;2023-04-01T07:27:43;14.13;;;5.47;;
25758;SDS011;13604;52.496;13.456;2023-04-01T07:30:17;12.77;;;5.82;;
25758;SDS011;13604;52.496;13.456;2023-04-01T07:33:03;9.52;;;5.00;;
25758;SDS011;13604;52.496;13.456;2023-04-01T07:35:42;5.43;;;4.18;;
25758;SDS011;13604;52.496;13.456;2023-04-01T07:38:28;9.57;;;4.65;;
25758;SDS011;13604;52.496;13.456;2023-04-01T07:41:23;12.20;;;4.78;;
25758;SDS011;13604;52.496;13.456;2023-04-01T07:44:06;6.40;;;4.18;;
25758;SDS011;13604;52.496;13.456;2023-04-01T07:52:19;9.23;;;4.50;;
25758;SDS011;13604;52.496;13.456;2023-04-01T07:54:55;9.70;;;4.80;;
25758;SDS011;13604;52.496;13.456;2023-04-01T08:00:22;6.95;;;3.90;;
25758;SDS011;13604;52.496;13.456;2023-04-01T08:05:59;11.82;;;5.22;;
25758;SDS011;13604;52.496;13.456;2023-04-01T08:08:52;10.52;;;5.85;;
25758;SDS011;13604;52.496;13.456;2023-04-01T08:11:34;9.40;;;4.90;;
25758;SDS011;13604;52.496;13.456;2023-04-01T08:16:50;15.23;;;6.25;;
25758;SDS011;13604;52.496;13.456;2023-04-01T08:19:29;8.70;;;5.22;;
25758;SDS011;13604;52.496;13.456;2023-04-01T08:22:20;10.13;;;6.05;;
25758;SDS011;13604;52.496;13.456;2023-04-01T08:25:10;15.02;;;6.15;;
25758;SDS011;13604;52.496;13.456;2023-04-01T08:27:51;8.00;;;3.95;;
25758;SDS011;13604;52.496;13.456;2023-04-01T08:30:23;4.82;;;3.47;;
25758;SDS011;13604;52.496;13.456;2023-04-01T08:33:00;5.38;;;3.90;;
25758;SDS011;13604;52.496;13.456;2023-04-01T08:38:15;7.05;;;4.82;;
25758;SDS011;13604;52.496;13.456;2023-04-01T08:52:18;10.15;;;7.38;;
25758;SDS011;13604;52.496;13.456;2023-04-01T08:57:34;12.18;;;8.75;;
25758;SDS011;13604;52.496;13.456;2023-04-01T09:00:37;13.38;;;8.55;;
25758;SDS011;13604;52.496;13.456;2023-04-01T09:03:51;11.65;;;8.25;;
25758;SDS011;13604;52.496;13.456;2023-04-01T09:11:58;12.00;;;7.93;;
25758;SDS011;13604;52.496;13.456;2023-04-01T09:31:14;11.50;;;8.43;;
25758;SDS011;13604;52.496;13.456;2023-04-01T09:34:06;13.65;;;8.65;;
25758;SDS011;13604;52.496;13.456;2023-04-01T09:39:34;11.05;;;8.20;;
25758;SDS011;13604;52.496;13.456;2023-04-01T09:50:59;11.43;;;8.68;;
25758;SDS011;13604;52.496;13.456;2023-04-01T09:59:37;10.80;;;8.68;;
25758;SDS011;13604;52.496;13.456;2023-04-01T10:08:04;11.32;;;9.13;;
25758;SDS011;13604;52.496;13.456;2023-04-01T10:16:34;12.38;;;9.50;;
25758;SDS011;13604;52.496;13.456;2023-04-01T10:25:13;10.32;;;8.85;;
25758;SDS011;13604;52.496;13.456;2023-04-01T10:30:41;11.95;;;10.02;;
25758;SDS011;13604;52.496;13.456;2023-04-01T10:36:34;14.30;;;11.43;;
25758;SDS011;13604;52.496;13.456;2023-04-01T10:45:24;13.45;;;10.55;;
25758;SDS011;13604;52.496;13.456;2023-04-01T10:54:13;11.73;;;8.65;;
25758;SDS011;13604;52.496;13.456;2023-04-01T11:00:05;8.65;;;7.53;;
25758;SDS011;13604;52.496;13.456;2023-04-01T11:05:49;7.28;;;6.03;;
25758;SDS011;13604;52.496;13.456;2023-04-01T11:14:21;6.03;;;5.43;;
25758;SDS011;13604;52.496;13.456;2023-04-01T11:19:45;5.03;;;4.15;;
25758;SDS011;13604;52.496;13.456;2023-04-01T11:28:39;5.28;;;4.30;;
25758;SDS011;13604;52.496;13.456;2023-04-01T11:31:23;4.43;;;3.72;;
25758;SDS011;13604;52.496;13.456;2023-04-01T11:34:02;4.95;;;3.97;;
25758;SDS011;13604;52.496;13.456;2023-04-01T11:42:47;3.40;;;3.10;;
25758;SDS011;13604;52.496;13.456;2023-04-01T11:50:45;7.15;;;3.47;;
25758;SDS011;13604;52.496;13.456;2023-04-01T11:53:33;4.43;;;3.40;;
25758;SDS011;13604;52.496;13.456;2023-04-01T11:56:21;5.15;;;4.13;;
25758;SDS011;13604;52.496;13.456;2023-04-01T11:59:13;5.18;;;3.75;;
25758;SDS011;13604;52.496;13.456;2023-04-01T12:02:00;4.38;;;3.67;;
25758;SDS011;13604;52.496;13.456;2023-04-01T12:04:42;6.40;;;3.90;;
25758;SDS011;13604;52.496;13.456;2023-04-01T12:10:25;4.72;;;3.88;;
25758;SDS011;13604;52.496;13.456;2023-04-01T12:13:19;5.65;;;4.55;;
25758;SDS011;13604;52.496;13.456;2023-04-01T12:18:50;7.10;;;5.70;;
25758;SDS011;13604;52.496;13.456;2023-04-01T12:21:52;5.53;;;4.80;;
25758;SDS011;13604;52.496;13.456;2023-04-01T12:24:45;5.85;;;5.25;;
25758;SDS011;13604;52.496;13.456;2023-04-01T12:27:31;8.15;;;5.78;;
25758;SDS011;13604;52.496;13.456;2023-04-01T12:30:42;6.85;;;5.38;;
25758;SDS011;13604;52.496;13.456;2023-04-01T12:33:04;6.20;;;5.38;;
25758;SDS011;13604;52.496;13.456;2023-04-01T12:36:32;6.72;;;5.28;;
25758;SDS011;13604;52.496;13.456;2023-04-01T12:38:54;8.32;;;5.90;;
25758;SDS011;13604;52.496;13.456;2023-04-01T12:41:37;7.68;;;5.93;;
25758;SDS011;13604;52.496;13.456;2023-04-01T12:47:09;7.13;;;5.50;;
25758;SDS011;13604;52.496;13.456;2023-04-01T12:50:06;6.50;;;5.38;;
25758;SDS011;13604;52.496;13.456;2023-04-01T12:52:48;6.40;;;5.00;;
25758;SDS011;13604;52.496;13.456;2023-04-01T12:55:33;5.97;;;4.75;;
25758;SDS011;13604;52.496;13.456;2023-04-01T13:01:09;7.88;;;4.40;;
25758;SDS011;13604;52.496;13.456;2023-04-01T13:03:56;5.75;;;5.03;;
25758;SDS011;13604;52.496;13.456;2023-04-01T13:06:28;8.65;;;6.63;;
25758;SDS011;13604;52.496;13.456;2023-04-01T13:09:07;8.50;;;6.80;;
25758;SDS011;13604;52.496;13.456;2023-04-01T13:17:23;8.00;;;7.20;;
25758;SDS011;13604;52.496;13.456;2023-04-01T13:20:14;11.65;;;7.97;;
25758;SDS011;13604;52.496;13.456;2023-04-01T13:23:05;10.82;;;9.35;;
25758;SDS011;13604;52.496;13.456;2023-04-01T13:25:58;9.52;;;8.40;;
25758;SDS011;13604;52.496;13.456;2023-04-01T13:28:43;9.63;;;7.15;;
25758;SDS011;13604;52.496;13.456;2023-04-01T13:34:00;8.25;;;6.30;;
25758;SDS011;13604;52.496;13.456;2023-04-01T13:36:49;8.82;;;6.70;;
25758;SDS011;13604;52.496;13.456;2023-04-01T13:39:39;9.55;;;6.53;;
25758;SDS011;13604;52.496;13.456;2023-04-01T13:42:25;8.60;;;6.38;;
25758;SDS011;13604;52.496;13.456;2023-04-01T13:45:03;9.80;;;6.47;;
25758;SDS011;13604;52.496;13.456;2023-04-01T13:48:26;8.68;;;6.65;;
25758;SDS011;13604;52.496;13.456;2023-04-01T13:56:37;10.52;;;8.63;;
25758;SDS011;13604;52.496;13.456;2023-04-01T13:59:46;14.65;;;9.40;;
25758;SDS011;13604;52.496;13.456;2023-04-01T14:02:28;11.30;;;9.83;;
25758;SDS011;13604;52.496;13.456;2023-04-01T14:05:14;10.77;;;8.48;;
25758;SDS011;13604;52.496;13.456;2023-04-01T14:10:34;10.75;;;8.30;;
25758;SDS011;13604;52.496;13.456;2023-04-01T14:13:18;11.13;;;7.80;;
25758;SDS011;13604;52.496;13.456;2023-04-01T14:15:58;8.77;;;7.47;;
25758;SDS011;13604;52.496;13.456;2023-04-01T14:18:33;10.88;;;8.70;;
25758;SDS011;13604;52.496;13.456;2023-04-01T14:21:21;10.38;;;9.27;;
25758;SDS011;13604;52.496;13.456;2023-04-01T14:24:08;12.68;;;9.73;;
25758;SDS011;13604;52.496;13.456;2023-04-01T14:27:16;11.55;;;8.98;;
25758;SDS011;13604;52.496;13.456;2023-04-01T14:30:03;11.57;;;9.18;;
25758;SDS011;13604;52.496;13.456;2023-04-01T14:32:36;11.02;;;8.00;;
25758;SDS011;13604;52.496;13.456;2023-04-01T14:46:08;10.88;;;8.13;;
25758;SDS011;13604;52.496;13.456;2023-04-01T14:48:59;11.27;;;8.40;;
25758;SDS011;13604;52.496;13.456;2023-04-01T14:51:33;10.98;;;8.63;;
25758;SDS011;13604;52.496;13.456;2023-04-01T14:54:12;10.68;;;8.90;;
25758;SDS011;13604;52.496;13.456;2023-04-01T14:56:48;10.32;;;8.52;;
25758;SDS011;13604;52.496;13.456;2023-04-01T15:04:26;9.50;;;8.00;;
25758;SDS011;13604;52.496;13.456;2023-04-01T15:07:20;10.45;;;7.53;;
25758;SDS011;13604;52.496;13.456;2023-04-01T15:10:06;8.10;;;7.13;;
25758;SDS011;13604;52.496;13.456;2023-04-01T15:18:50;7.80;;;5.72;;
25758;SDS011;13604;52.496;13.456;2023-04-01T15:21:21;9.80;;;8.10;;
25758;SDS011;13604;52.496;13.456;2023-04-01T15:24:10;9.57;;;7.90;;
25758;SDS011;13604;52.496;13.456;2023-04-01T15:27:07;13.52;;;9.57;;
25758;SDS011;13604;52.496;13.456;2023-04-01T15:35:39;14.00;;;10.40;;
25758;SDS011;13604;52.496;13.456;2023-04-01T15:41:00;12.88;;;9.45;;
25758;SDS011;13604;52.496;13.456;2023-04-01T15:43:40;11.75;;;7.88;;
25758;SDS011;13604;52.496;13.456;2023-04-01T15:46:14;11.40;;;8.05;;
25758;SDS011;13604;52.496;13.456;2023-04-01T15:49:02;12.55;;;7.78;;
25758;SDS011;13604;52.496;13.456;2023-04-01T15:51:47;11.85;;;7.65;;
25758;SDS011;13604;52.496;13.456;2023-04-01T15:54:47;9.25;;;6.63;;
25758;SDS011;13604;52.496;13.456;2023-04-01T16:13:08;13.63;;;9.65;;
25758;SDS011;13604;52.496;13.456;2023-04-01T16:21:44;14.02;;;9.73;;
25758;SDS011;13604;52.496;13.456;2023-04-01T16:33:02;14.43;;;9.40;;
25758;SDS011;13604;52.496;13.456;2023-04-01T16:35:48;12.43;;;9.30;;
25758;SDS011;13604;52.496;13.456;2023-04-01T16:39:18;13.75;;;9.18;;
25758;SDS011;13604;52.496;13.456;2023-04-01T16:41:19;11.70;;;9.27;;
25758;SDS011;13604;52.496;13.456;2023-04-01T16:43:56;11.35;;;9.55;;
25758;SDS011;13604;52.496;13.456;2023-04-01T16:46:44;12.15;;;9.43;;
25758;SDS011;13604;52.496;13.456;2023-04-01T16:49:23;12.55;;;9.52;;
25758;SDS011;13604;52.496;13.456;2023-04-01T16:54:36;11.90;;;8.80;;
25758;SDS011;13604;52.496;13.456;2023-04-01T16:59:37;10.43;;;7.90;;
25758;SDS011;13604;52.496;13.456;2023-04-01T17:02:10;10.65;;;7.80;;
25758;SDS011;13604;52.496;13.456;2023-04-01T17:04:45;11.80;;;7.93;;
25758;SDS011;13604;52.496;13.456;2023-04-01T17:07:21;12.57;;;8.18;;
25758;SDS011;13604;52.496;13.456;2023-04-01T17:10:07;11.88;;;8.00;;
25758;SDS011;13604;52.496;13.456;2023-04-01T17:13:15;11.40;;;7.82;;
25758;SDS011;13604;52.496;13.456;2023-04-01T17:15:46;14.95;;;8.45;;
25758;SDS011;13604;52.496;13.456;2023-04-01T17:18:34;11.07;;;8.15;;
25758;SDS011;13604;52.496;13.456;2023-04-01T17:21:18;11.82;;;8.88;;
25758;SDS011;13604;52.496;13.456;2023-04-01T17:23:51;11.82;;;8.60;;
25758;SDS011;13604;52.496;13.456;2023-04-01T17:26:26;12.10;;;9.00;;
25758;SDS011;13604;52.496;13.456;2023-04-01T17:32:00;14.50;;;9.65;;
25758;SDS011;13604;52.496;13.456;2023-04-01T17:35:00;10.88;;;8.82;;
25758;SDS011;13604;52.496;13.456;2023-04-01T17:46:02;11.52;;;9.18;;
25758;SDS011;13604;52.496;13.456;2023-04-01T17:49:01;13.30;;;9.73;;
25758;SDS011;13604;52.496;13.456;2023-04-01T17:52:10;11.63;;;9.35;;
25758;SDS011;13604;52.496;13.456;2023-04-01T17:54:58;14.05;;;10.73;;
25758;SDS011;13604;52.496;13.456;2023-04-01T18:01:07;16.13;;;10.50;;
25758;SDS011;13604;52.496;13.456;2023-04-01T18:03:54;11.65;;;9.07;;
25758;SDS011;13604;52.496;13.456;2023-04-01T18:06:33;11.77;;;8.57;;
25758;SDS011;13604;52.496;13.456;2023-04-01T18:09:12;12.35;;;8.63;;
25758;SDS011;13604;52.496;13.456;2023-04-01T18:22:48;16.08;;;9.75;;
25758;SDS011;13604;52.496;13.456;2023-04-01T18:25:40;15.05;;;8.70;;
25758;SDS011;13604;52.496;13.456;2023-04-01T18:31:23;12.98;;;8.50;;
25758;SDS011;13604;52.496;13.456;2023-04-01T18:36:48;16.95;;;9.65;;
25758;SDS011;13604;52.496;13.456;2023-04-01T18:51:22;11.32;;;7.22;;
25758;SDS011;13604;52.496;13.456;2023-04-01T18:53:56;16.02;;;7.63;;
25758;SDS011;13604;52.496;13.456;2023-04-01T18:56:38;9.38;;;6.55;;
25758;SDS011;13604;52.496;13.456;2023-04-01T18:59:26;19.98;;;6.85;;
25758;SDS011;13604;52.496;13.456;2023-04-01T19:05:09;13.98;;;7.40;;
25758;SDS011;13604;52.496;13.456;2023-04-01T19:07:44;12.05;;;7.75;;
25758;SDS011;13604;52.496;13.456;2023-04-01T19:13:10;16.65;;;8.68;;
25758;SDS011;13604;52.496;13.456;2023-04-01T19:16:04;16.40;;;8.85;;
25758;SDS011;13604;52.496;13.456;2023-04-01T19:21:23;19.17;;;11.05;;
25758;SDS011;13604;52.496;13.456;2023-04-01T19:24:25;22.60;;;10.27;;
25758;SDS011;13604;52.496;13.456;2023-04-01T19:32:43;15.88;;;9.50;;
25758;SDS011;13604;52.496;13.456;2023-04-01T19:35:19;18.45;;;10.27;;
25758;SDS011;13604;52.496;13.456;2023-04-01T19:38:01;16.05;;;9.82;;
25758;SDS011;13604;52.496;13.456;2023-04-01T19:40:37;15.10;;;9.75;;
25758;SDS011;13604;52.496;13.456;2023-04-01T19:46:07;13.50;;;9.27;;
25758;SDS011;13604;52.496;13.456;2023-04-01T19:54:02;24.58;;;11.07;;
25758;SDS011;13604;52.496;13.456;2023-04-01T19:56:42;19.13;;;11.15;;
25758;SDS011;13604;52.496;13.456;2023-04-01T20:04:41;23.05;;;11.07;;
25758;SDS011;13604;52.496;13.456;2023-04-01T20:07:22;22.40;;;10.43;;
25758;SDS011;13604;52.496;13.456;2023-04-01T20:15:43;19.67;;;9.40;;
25758;SDS011;13604;52.496;13.456;2023-04-01T20:18:18;17.17;;;9.60;;
25758;SDS011;13604;52.496;13.456;2023-04-01T20:21:03;16.50;;;8.73;;
25758;SDS011;13604;52.496;13.456;2023-04-01T20:23:43;18.40;;;9.35;;
25758;SDS011;13604;52.496;13.456;2023-04-01T20:26:18;15.63;;;8.85;;
25758;SDS011;13604;52.496;13.456;2023-04-01T20:31:40;25.42;;;10.82;;
25758;SDS011;13604;52.496;13.456;2023-04-01T20:34:21;19.75;;;11.80;;
25758;SDS011;13604;52.496;13.456;2023-04-01T20:37:07;21.05;;;11.90;;
25758;SDS011;13604;52.496;13.456;2023-04-01T20:42:34;23.20;;;11.93;;
25758;SDS011;13604;52.496;13.456;2023-04-01T20:45:32;20.08;;;10.80;;
25758;SDS011;13604;52.496;13.456;2023-04-01T20:56:46;18.67;;;10.48;;
25758;SDS011;13604;52.496;13.456;2023-04-01T20:59:33;20.10;;;9.52;;
25758;SDS011;13604;52.496;13.456;2023-04-01T21:08:08;17.52;;;8.52;;
25758;SDS011;13604;52.496;13.456;2023-04-01T21:10:43;16.95;;;7.75;;
25758;SDS011;13604;52.496;13.456;2023-04-01T21:19:36;17.83;;;8.80;;
25758;SDS011;13604;52.496;13.456;2023-04-01T21:22:17;12.82;;;7.80;;
25758;SDS011;13604;52.496;13.456;2023-04-01T21:24:50;12.93;;;8.27;;